createdAt,value
2022-10-12T00:01:46.680Z,24.73
2022-10-12T00:04:14.240Z,24.27
2022-10-12T00:06:44.567Z,25.60
2022-10-12T00:09:12.470Z,22.90
2022-10-12T00:11:48.577Z,24.33
2022-10-12T00:14:16.953Z,21.17
2022-10-12T00:16:45.036Z,22.52
2022-10-12T00:23:52.471Z,21.63
2022-10-12T00:26:29.090Z,25.70
2022-10-12T00:29:13.404Z,22.70
2022-10-12T00:31:41.818Z,23.58
2022-10-12T00:34:10.019Z,22.25
2022-10-12T00:36:56.900Z,22.98
2022-10-12T00:39:30.554Z,20.60
2022-10-12T00:56:06.945Z,22.98
2022-10-12T00:58:34.630Z,22.58
2022-10-12T01:01:06.547Z,22.77
2022-10-12T01:03:36.223Z,23.63
2022-10-12T01:06:05.646Z,22.80
2022-10-12T01:08:33.450Z,21.80
2022-10-12T01:21:27.997Z,20.60
2022-10-12T01:24:44.402Z,22.95
2022-10-12T01:27:37.271Z,24.45
2022-10-12T01:30:32.265Z,22.38
2022-10-12T01:33:26.689Z,21.58
2022-10-12T01:36:28.509Z,21.98
2022-10-12T01:50:38.866Z,19.95
2022-10-12T01:53:35.738Z,19.55
2022-10-12T01:56:21.475Z,21.83
2022-10-12T01:59:25.909Z,22.17
2022-10-12T02:02:13.766Z,18.85
2022-10-12T02:05:16.388Z,21.40
2022-10-12T02:07:55.911Z,20.73
2022-10-12T02:10:35.484Z,24.25
2022-10-12T02:13:08.786Z,19.10
2022-10-12T02:15:38.555Z,21.00
2022-10-12T02:18:10.338Z,19.30
2022-10-12T02:20:40.835Z,21.60
2022-10-12T02:23:10.465Z,21.60
2022-10-12T02:25:39.430Z,19.63
2022-10-12T02:28:15.266Z,18.77
2022-10-12T02:31:04.645Z,19.02
2022-10-12T02:34:39.508Z,20.45
2022-10-12T02:43:23.435Z,20.33
2022-10-12T02:45:55.688Z,17.75
2022-10-12T02:48:25.697Z,20.27
2022-10-12T03:09:27.295Z,18.63
2022-10-12T03:21:14.666Z,16.70
2022-10-12T03:23:42.613Z,16.08
2022-10-12T03:26:19.918Z,15.57
2022-10-12T03:28:47.971Z,19.08
2022-10-12T03:31:16.144Z,16.38
2022-10-12T03:33:43.714Z,16.50
2022-10-12T03:36:12.233Z,16.73
2022-10-12T03:38:39.694Z,17.83
2022-10-12T03:41:07.759Z,17.10
2022-10-12T03:54:21.763Z,16.88
2022-10-12T04:24:16.336Z,18.77
2022-10-12T04:26:53.307Z,18.05
2022-10-12T04:29:39.993Z,15.82
2022-10-12T05:52:04.916Z,16.95
2022-10-12T05:54:33.006Z,15.40
2022-10-12T05:57:00.407Z,15.93
2022-10-12T05:59:28.886Z,15.73
2022-10-12T06:14:54.069Z,17.60
2022-10-12T06:21:35.386Z,15.70
2022-10-12T06:24:06.893Z,16.17
2022-10-12T06:26:35.336Z,15.15
2022-10-12T06:29:06.249Z,13.23
2022-10-12T06:31:34.850Z,12.80
2022-10-12T06:34:05.302Z,13.23
2022-10-12T06:36:33.003Z,13.13
2022-10-12T06:39:00.269Z,13.73
2022-10-12T06:46:12.392Z,13.23
2022-10-12T06:48:40.544Z,15.85
2022-10-12T06:51:08.599Z,11.57
2022-10-12T06:53:36.589Z,14.02
2022-10-12T06:56:10.383Z,12.95
2022-10-12T07:03:40.422Z,12.68
2022-10-12T07:06:12.168Z,12.10
2022-10-12T07:08:41.350Z,11.38
2022-10-12T07:11:13.065Z,12.68
2022-10-12T07:13:40.858Z,12.20
2022-10-12T07:16:08.855Z,12.10
2022-10-12T07:38:37.803Z,12.15
2022-10-12T08:07:24.627Z,14.20
2022-10-12T08:09:52.619Z,16.98
2022-10-12T08:12:20.057Z,27.65
2022-10-12T08:20:07.329Z,26.45
2022-10-12T08:22:37.233Z,33.65
2022-10-12T08:25:07.936Z,33.33
2022-10-12T08:27:36.313Z,32.72
2022-10-12T08:30:06.650Z,31.23
2022-10-12T08:32:40.283Z,29.88
2022-10-12T08:35:11.160Z,27.83
2022-10-12T09:13:13.264Z,22.35
2022-10-12T09:25:03.827Z,25.52
2022-10-12T09:27:32.200Z,24.63
2022-10-12T09:30:04.906Z,25.10
2022-10-12T09:33:03.426Z,23.33
2022-10-12T09:35:32.432Z,21.13
2022-10-12T09:38:02.227Z,22.13
2022-10-12T09:40:32.754Z,21.15
2022-10-12T09:43:03.103Z,21.90
2022-10-12T09:45:34.094Z,18.35
2022-10-12T09:48:19.661Z,19.10
2022-10-12T09:51:00.357Z,18.42
2022-10-12T09:53:32.470Z,18.00
2022-10-12T09:56:16.059Z,17.50
2022-10-12T09:59:02.226Z,17.05
2022-10-12T10:01:35.481Z,17.75
2022-10-12T10:04:26.897Z,17.38
2022-10-12T10:06:54.603Z,18.02
2022-10-12T10:09:32.171Z,17.70
2022-10-12T10:12:27.206Z,16.17
2022-10-12T10:14:57.413Z,17.42
2022-10-12T10:17:32.523Z,14.68
2022-10-12T10:20:05.938Z,12.80
2022-10-12T10:22:33.663Z,13.88
2022-10-12T10:25:02.487Z,12.75
2022-10-12T10:27:39.676Z,14.55
2022-10-12T10:30:29.548Z,10.77
2022-10-12T10:43:27.727Z,12.73
2022-10-12T10:46:03.423Z,14.77
2022-10-12T10:48:59.178Z,13.27
2022-10-12T10:51:52.638Z,10.13
2022-10-12T10:54:23.452Z,9.13
2022-10-12T10:56:57.566Z,7.78
2022-10-12T11:00:02.240Z,8.25
2022-10-12T11:02:45.853Z,9.18
2022-10-12T11:05:33.704Z,9.45
2022-10-12T11:08:12.145Z,10.73
2022-10-12T11:11:55.472Z,7.95
2022-10-12T11:29:20.666Z,7.40
2022-10-12T12:01:17.231Z,5.80
2022-10-12T12:03:44.636Z,6.00
2022-10-12T12:06:30.291Z,4.43
2022-10-12T12:09:02.331Z,6.53
2022-10-12T12:11:34.770Z,6.75
2022-10-12T12:19:35.298Z,4.72
2022-10-12T12:22:28.857Z,9.65
2022-10-12T12:25:21.078Z,4.45
2022-10-12T12:33:19.412Z,5.82
2022-10-12T12:36:07.780Z,6.65
2022-10-12T12:51:44.118Z,6.15
2022-10-12T12:54:24.729Z,8.98
2022-10-12T13:59:30.967Z,5.75
2022-10-12T14:02:02.306Z,7.30
2022-10-12T14:04:33.636Z,6.22
2022-10-12T14:16:32.027Z,6.55
2022-10-12T14:19:32.233Z,8.48
2022-10-12T14:22:01.492Z,7.30
2022-10-12T14:24:30.055Z,8.93
2022-10-12T14:27:04.189Z,6.07
2022-10-12T14:29:36.805Z,6.68
2022-10-12T14:32:29.489Z,5.35
2022-10-12T14:35:24.219Z,8.63
2022-10-12T14:37:54.786Z,10.23
2022-10-12T17:14:41.315Z,18.02
2022-10-12T17:17:09.544Z,18.40
2022-10-12T17:19:39.866Z,19.25
2022-10-12T17:33:18.497Z,22.67
2022-10-12T17:55:24.306Z,22.67
2022-10-12T17:58:00.729Z,22.90
2022-10-12T18:00:29.176Z,22.52
2022-10-12T18:02:57.429Z,23.98
2022-10-12T18:05:25.295Z,23.40
2022-10-12T18:07:53.255Z,23.33
2022-10-12T18:10:23.462Z,24.17
2022-10-12T18:12:53.662Z,26.77
2022-10-12T18:15:23.314Z,26.10
2022-10-12T18:17:50.658Z,25.63
2022-10-12T18:20:19.750Z,23.17
2022-10-12T18:22:47.017Z,23.98
2022-10-12T18:25:15.586Z,24.98
2022-10-12T18:27:43.800Z,25.33
2022-10-12T18:30:11.891Z,25.73
2022-10-12T18:32:39.070Z,23.95
2022-10-12T18:35:07.218Z,27.92
2022-10-12T18:37:34.986Z,26.38
2022-10-12T18:40:07.458Z,25.95
2022-10-12T18:42:35.134Z,25.70
2022-10-12T18:45:02.441Z,31.95
2022-10-12T18:47:29.811Z,34.40
2022-10-12T18:49:57.475Z,33.15
2022-10-12T18:52:24.488Z,31.73
2022-10-12T18:54:51.751Z,34.10
2022-10-12T18:57:19.131Z,31.40
2022-10-12T18:59:46.540Z,31.92
2022-10-12T19:02:18.072Z,32.08
2022-10-12T19:04:46.717Z,25.47
2022-10-12T19:07:16.043Z,27.23
2022-10-12T19:09:43.151Z,26.25
2022-10-12T19:12:13.166Z,26.73
2022-10-12T19:14:41.206Z,23.83
2022-10-12T19:17:08.278Z,27.15
2022-10-12T19:19:36.667Z,24.95
2022-10-12T19:22:04.419Z,25.20
2022-10-12T19:24:32.270Z,23.73
2022-10-12T19:36:58.618Z,28.77
2022-10-12T19:39:27.288Z,27.55
2022-10-12T19:41:54.548Z,29.45
2022-10-12T19:44:22.387Z,26.98
2022-10-12T19:47:08.200Z,27.30
2022-10-12T19:49:50.442Z,27.05
2022-10-12T19:52:38.126Z,29.95
2022-10-12T19:55:08.177Z,30.95
2022-10-12T19:57:53.812Z,27.85
2022-10-12T20:00:33.750Z,30.15
2022-10-12T20:03:10.280Z,30.20
2022-10-12T20:05:48.557Z,33.30
2022-10-12T20:08:16.569Z,34.40
2022-10-12T20:10:53.706Z,30.52
2022-10-12T20:16:47.022Z,25.73
2022-10-12T20:19:17.820Z,29.77
2022-10-12T20:21:45.555Z,31.00
2022-10-12T20:24:13.230Z,29.23
2022-10-12T20:26:44.776Z,25.88
2022-10-12T20:29:15.817Z,31.05
2022-10-12T20:31:44.105Z,24.75
2022-10-12T20:35:16.835Z,29.52
2022-10-12T20:39:47.113Z,25.33
2022-10-12T20:42:22.489Z,26.42
2022-10-12T20:44:56.042Z,26.63
2022-10-12T20:47:26.473Z,25.73
2022-10-12T20:50:13.461Z,27.58
2022-10-12T20:52:44.773Z,27.73
2022-10-12T20:55:26.549Z,26.92
2022-10-12T20:58:00.377Z,26.17
2022-10-12T21:00:42.279Z,27.10
2022-10-12T21:03:22.685Z,25.77
2022-10-12T21:10:41.106Z,35.03
2022-10-12T21:17:55.584Z,32.90
2022-10-12T21:20:24.399Z,32.13
2022-10-12T21:22:52.265Z,30.58
2022-10-12T21:25:23.327Z,32.67
2022-10-12T21:33:04.747Z,30.13
2022-10-12T21:47:22.548Z,28.20
2022-10-12T21:49:50.088Z,29.55
2022-10-12T21:52:17.363Z,27.63
2022-10-12T21:54:45.801Z,31.15
2022-10-12T21:57:13.246Z,28.23
2022-10-12T21:59:40.262Z,30.92
2022-10-12T22:02:08.343Z,28.00
2022-10-12T22:04:41.652Z,32.13
2022-10-12T22:10:19.293Z,27.17
2022-10-12T22:12:46.442Z,27.75
2022-10-12T22:15:13.874Z,29.65
2022-10-12T22:17:40.945Z,26.05
2022-10-12T22:20:08.499Z,24.42
2022-10-12T22:22:56.579Z,23.95
2022-10-12T22:30:21.086Z,24.15
2022-10-12T22:37:48.833Z,21.85
2022-10-12T22:40:22.865Z,25.70
2022-10-12T22:42:50.866Z,25.67
2022-10-12T22:45:27.089Z,24.23
2022-10-12T22:48:00.631Z,24.88
2022-10-12T22:50:37.659Z,25.65
2022-10-12T22:53:07.159Z,24.00
2022-10-12T22:55:43.337Z,27.52
2022-10-12T22:58:17.174Z,26.98
2022-10-12T23:00:45.525Z,26.73
2022-10-12T23:03:16.651Z,26.73
2022-10-12T23:05:49.252Z,25.52
2022-10-12T23:08:17.475Z,23.58
2022-10-12T23:11:16.926Z,23.02
2022-10-12T23:19:04.392Z,22.60
2022-10-12T23:21:34.933Z,23.90
2022-10-12T23:24:07.502Z,22.02
2022-10-12T23:26:35.754Z,24.35
2022-10-12T23:29:05.834Z,24.02
2022-10-12T23:47:30.923Z,26.63
2022-10-12T23:49:58.961Z,27.50
2022-10-12T23:52:54.929Z,24.73
2022-10-12T23:55:30.906Z,25.67
2022-10-12T23:58:22.649Z,24.55
